sensor_id;sensor_type;location;lat;lon;timestamp;P1;durP1;ratioP1;P2;durP2;ratioP2
948;SDS011;461;51.436;7.312;2023-11-21T00:00:34;58.67;;;8.93;;
948;SDS011;461;51.436;7.312;2023-11-21T00:03:00;37.93;;;9.20;;
948;SDS011;461;51.436;7.312;2023-11-21T00:05:26;16.03;;;7.63;;
948;SDS011;461;51.436;7.312;2023-11-21T00:07:51;15.67;;;7.33;;
948;SDS011;461;51.436;7.312;2023-11-21T00:10:18;15.93;;;7.50;;
948;SDS011;461;51.436;7.312;2023-11-21T00:12:43;15.07;;;7.23;;
948;SDS011;461;51.436;7.312;2023-11-21T00:15:13;10.33;;;6.03;;
948;SDS011;461;51.436;7.312;2023-11-21T00:17:43;11.00;;;6.60;;
948;SDS011;461;51.436;7.312;2023-11-21T00:20:09;161.87;;;16.87;;
948;SDS011;461;51.436;7.312;2023-11-21T00:22:37;40.63;;;7.77;;
948;SDS011;461;51.436;7.312;2023-11-21T00:25:07;18.83;;;7.50;;
948;SDS011;461;51.436;7.312;2023-11-21T00:27:34;22.63;;;7.40;;
948;SDS011;461;51.436;7.312;2023-11-21T00:30:06;15.43;;;7.60;;
948;SDS011;461;51.436;7.312;2023-11-21T00:32:39;15.30;;;7.73;;
948;SDS011;461;51.436;7.312;2023-11-21T00:35:13;11.03;;;7.87;;
948;SDS011;461;51.436;7.312;2023-11-21T00:37:40;12.63;;;8.03;;
948;SDS011;461;51.436;7.312;2023-11-21T00:40:07;14.17;;;7.97;;
948;SDS011;461;51.436;7.312;2023-11-21T00:42:36;14.67;;;8.13;;
948;SDS011;461;51.436;7.312;2023-11-21T00:45:02;16.33;;;7.80;;
948;SDS011;461;51.436;7.312;2023-11-21T00:47:29;14.07;;;8.40;;
948;SDS011;461;51.436;7.312;2023-11-21T00:49:54;15.87;;;8.90;;
948;SDS011;461;51.436;7.312;2023-11-21T00:52:22;35.67;;;8.90;;
948;SDS011;461;51.436;7.312;2023-11-21T00:54:48;15.43;;;8.13;;
948;SDS011;461;51.436;7.312;2023-11-21T00:57:16;18.40;;;8.00;;
948;SDS011;461;51.436;7.312;2023-11-21T00:59:42;12.80;;;8.47;;
948;SDS011;461;51.436;7.312;2023-11-21T01:02:08;12.83;;;8.60;;
948;SDS011;461;51.436;7.312;2023-11-21T01:04:35;12.03;;;7.70;;
948;SDS011;461;51.436;7.312;2023-11-21T01:07:02;14.53;;;7.77;;
948;SDS011;461;51.436;7.312;2023-11-21T01:09:30;30.43;;;8.30;;
948;SDS011;461;51.436;7.312;2023-11-21T01:11:55;214.53;;;19.00;;
948;SDS011;461;51.436;7.312;2023-11-21T01:14:22;14.73;;;7.93;;
948;SDS011;461;51.436;7.312;2023-11-21T01:16:47;13.50;;;8.20;;
948;SDS011;461;51.436;7.312;2023-11-21T01:19:14;19.20;;;8.10;;
948;SDS011;461;51.436;7.312;2023-11-21T01:21:39;9.30;;;6.50;;
948;SDS011;461;51.436;7.312;2023-11-21T01:24:05;29.83;;;8.40;;
948;SDS011;461;51.436;7.312;2023-11-21T01:26:32;10.70;;;7.57;;
948;SDS011;461;51.436;7.312;2023-11-21T01:28:58;20.50;;;8.17;;
948;SDS011;461;51.436;7.312;2023-11-21T01:31:24;11.73;;;7.03;;
948;SDS011;461;51.436;7.312;2023-11-21T01:33:54;13.20;;;8.33;;
948;SDS011;461;51.436;7.312;2023-11-21T01:36:20;14.73;;;7.80;;
948;SDS011;461;51.436;7.312;2023-11-21T01:38:46;11.20;;;8.20;;
948;SDS011;461;51.436;7.312;2023-11-21T01:41:13;10.83;;;7.73;;
948;SDS011;461;51.436;7.312;2023-11-21T01:43:40;18.53;;;8.37;;
948;SDS011;461;51.436;7.312;2023-11-21T01:46:06;17.43;;;8.47;;
948;SDS011;461;51.436;7.312;2023-11-21T01:48:34;11.70;;;8.43;;
948;SDS011;461;51.436;7.312;2023-11-21T01:51:00;13.23;;;9.57;;
948;SDS011;461;51.436;7.312;2023-11-21T01:53:27;13.33;;;8.17;;
948;SDS011;461;51.436;7.312;2023-11-21T01:55:54;13.03;;;7.30;;
948;SDS011;461;51.436;7.312;2023-11-21T01:58:21;19.43;;;8.10;;
948;SDS011;461;51.436;7.312;2023-11-21T02:00:47;11.57;;;7.90;;
948;SDS011;461;51.436;7.312;2023-11-21T02:03:16;19.23;;;7.97;;
948;SDS011;461;51.436;7.312;2023-11-21T02:05:42;11.23;;;7.97;;
948;SDS011;461;51.436;7.312;2023-11-21T02:08:08;10.37;;;7.87;;
948;SDS011;461;51.436;7.312;2023-11-21T02:10:34;20.43;;;9.30;;
948;SDS011;461;51.436;7.312;2023-11-21T02:13:02;12.57;;;8.53;;
948;SDS011;461;51.436;7.312;2023-11-21T02:15:28;11.77;;;8.77;;
948;SDS011;461;51.436;7.312;2023-11-21T02:17:55;17.20;;;9.53;;
948;SDS011;461;51.436;7.312;2023-11-21T02:20:23;12.87;;;8.30;;
948;SDS011;461;51.436;7.312;2023-11-21T02:22:50;13.43;;;9.63;;
948;SDS011;461;51.436;7.312;2023-11-21T02:25:24;11.60;;;7.60;;
948;SDS011;461;51.436;7.312;2023-11-21T02:27:53;15.63;;;9.97;;
948;SDS011;461;51.436;7.312;2023-11-21T02:30:20;10.43;;;8.47;;
948;SDS011;461;51.436;7.312;2023-11-21T02:32:49;12.13;;;8.87;;
948;SDS011;461;51.436;7.312;2023-11-21T02:35:18;14.40;;;8.50;;
948;SDS011;461;51.436;7.312;2023-11-21T02:37:46;14.33;;;8.67;;
948;SDS011;461;51.436;7.312;2023-11-21T02:40:12;10.80;;;8.10;;
948;SDS011;461;51.436;7.312;2023-11-21T02:42:42;17.70;;;8.20;;
948;SDS011;461;51.436;7.312;2023-11-21T02:45:09;11.83;;;7.10;;
948;SDS011;461;51.436;7.312;2023-11-21T02:47:37;98.27;;;11.13;;
948;SDS011;461;51.436;7.312;2023-11-21T02:50:04;26.57;;;8.70;;
948;SDS011;461;51.436;7.312;2023-11-21T02:52:31;31.53;;;8.60;;
948;SDS011;461;51.436;7.312;2023-11-21T02:54:58;12.00;;;8.30;;
948;SDS011;461;51.436;7.312;2023-11-21T02:57:24;16.70;;;8.40;;
948;SDS011;461;51.436;7.312;2023-11-21T02:59:50;11.83;;;7.97;;
948;SDS011;461;51.436;7.312;2023-11-21T03:02:16;17.93;;;11.00;;
948;SDS011;461;51.436;7.312;2023-11-21T03:04:42;14.20;;;8.80;;
948;SDS011;461;51.436;7.312;2023-11-21T03:07:08;12.90;;;9.87;;
948;SDS011;461;51.436;7.312;2023-11-21T03:09:35;16.10;;;10.40;;
948;SDS011;461;51.436;7.312;2023-11-21T03:12:00;18.03;;;10.13;;
948;SDS011;461;51.436;7.312;2023-11-21T03:14:27;17.70;;;10.63;;
948;SDS011;461;51.436;7.312;2023-11-21T03:16:52;15.20;;;8.80;;
948;SDS011;461;51.436;7.312;2023-11-21T03:19:18;14.47;;;9.20;;
948;SDS011;461;51.436;7.312;2023-11-21T03:21:44;14.30;;;9.77;;
948;SDS011;461;51.436;7.312;2023-11-21T03:24:10;13.50;;;7.60;;
948;SDS011;461;51.436;7.312;2023-11-21T03:26:36;18.57;;;8.47;;
948;SDS011;461;51.436;7.312;2023-11-21T03:29:03;11.87;;;8.70;;
948;SDS011;461;51.436;7.312;2023-11-21T03:31:29;11.90;;;8.50;;
948;SDS011;461;51.436;7.312;2023-11-21T03:33:56;15.00;;;7.93;;
948;SDS011;461;51.436;7.312;2023-11-21T03:36:22;13.53;;;8.40;;
948;SDS011;461;51.436;7.312;2023-11-21T03:38:50;12.50;;;8.40;;
948;SDS011;461;51.436;7.312;2023-11-21T03:41:16;18.67;;;8.17;;
948;SDS011;461;51.436;7.312;2023-11-21T03:43:41;13.67;;;9.47;;
948;SDS011;461;51.436;7.312;2023-11-21T03:46:07;13.63;;;8.57;;
948;SDS011;461;51.436;7.312;2023-11-21T03:48:33;17.47;;;8.00;;
948;SDS011;461;51.436;7.312;2023-11-21T03:50:59;13.90;;;8.80;;
948;SDS011;461;51.436;7.312;2023-11-21T03:53:24;14.40;;;8.60;;
948;SDS011;461;51.436;7.312;2023-11-21T03:55:50;18.50;;;9.27;;
948;SDS011;461;51.436;7.312;2023-11-21T03:58:16;16.17;;;8.97;;
948;SDS011;461;51.436;7.312;2023-11-21T04:00:42;20.83;;;9.97;;
948;SDS011;461;51.436;7.312;2023-11-21T04:03:08;20.90;;;10.83;;
948;SDS011;461;51.436;7.312;2023-11-21T04:05:33;21.27;;;12.10;;
948;SDS011;461;51.436;7.312;2023-11-21T04:07:59;19.43;;;10.20;;
948;SDS011;461;51.436;7.312;2023-11-21T04:10:25;15.77;;;9.10;;
948;SDS011;461;51.436;7.312;2023-11-21T04:12:51;21.37;;;9.80;;
948;SDS011;461;51.436;7.312;2023-11-21T04:15:16;21.90;;;8.40;;
948;SDS011;461;51.436;7.312;2023-11-21T04:17:42;14.10;;;9.20;;
948;SDS011;461;51.436;7.312;2023-11-21T04:20:08;12.97;;;9.47;;
948;SDS011;461;51.436;7.312;2023-11-21T04:22:41;21.73;;;10.50;;
948;SDS011;461;51.436;7.312;2023-11-21T04:25:09;18.53;;;11.00;;
948;SDS011;461;51.436;7.312;2023-11-21T04:27:39;23.20;;;11.03;;
948;SDS011;461;51.436;7.312;2023-11-21T04:30:06;24.07;;;10.87;;
948;SDS011;461;51.436;7.312;2023-11-21T04:32:32;22.50;;;11.63;;
948;SDS011;461;51.436;7.312;2023-11-21T04:34:58;25.03;;;10.10;;
948;SDS011;461;51.436;7.312;2023-11-21T04:37:24;16.50;;;9.00;;
948;SDS011;461;51.436;7.312;2023-11-21T04:39:50;17.13;;;8.80;;
948;SDS011;461;51.436;7.312;2023-11-21T04:42:17;155.83;;;18.50;;
948;SDS011;461;51.436;7.312;2023-11-21T04:44:42;19.93;;;8.00;;
948;SDS011;461;51.436;7.312;2023-11-21T04:47:09;14.40;;;9.53;;
948;SDS011;461;51.436;7.312;2023-11-21T04:49:35;17.40;;;9.00;;
948;SDS011;461;51.436;7.312;2023-11-21T04:52:01;17.90;;;9.70;;
948;SDS011;461;51.436;7.312;2023-11-21T04:54:28;21.50;;;9.13;;
948;SDS011;461;51.436;7.312;2023-11-21T04:56:55;22.50;;;10.37;;
948;SDS011;461;51.436;7.312;2023-11-21T04:59:21;19.13;;;10.40;;
948;SDS011;461;51.436;7.312;2023-11-21T05:01:50;17.90;;;10.60;;
948;SDS011;461;51.436;7.312;2023-11-21T05:04:15;22.20;;;10.83;;
948;SDS011;461;51.436;7.312;2023-11-21T05:06:41;18.17;;;11.10;;
948;SDS011;461;51.436;7.312;2023-11-21T05:09:07;15.10;;;10.37;;
948;SDS011;461;51.436;7.312;2023-11-21T05:11:37;18.00;;;9.50;;
948;SDS011;461;51.436;7.312;2023-11-21T05:14:03;24.23;;;9.83;;
948;SDS011;461;51.436;7.312;2023-11-21T05:16:30;20.10;;;11.40;;
948;SDS011;461;51.436;7.312;2023-11-21T05:18:56;18.80;;;10.63;;
948;SDS011;461;51.436;7.312;2023-11-21T05:21:25;17.80;;;10.37;;
948;SDS011;461;51.436;7.312;2023-11-21T05:23:52;14.80;;;9.43;;
948;SDS011;461;51.436;7.312;2023-11-21T05:26:17;22.20;;;10.00;;
948;SDS011;461;51.436;7.312;2023-11-21T05:28:43;22.50;;;11.10;;
948;SDS011;461;51.436;7.312;2023-11-21T05:31:09;19.00;;;10.63;;
948;SDS011;461;51.436;7.312;2023-11-21T05:33:35;19.97;;;8.63;;
948;SDS011;461;51.436;7.312;2023-11-21T05:36:01;27.73;;;10.93;;
948;SDS011;461;51.436;7.312;2023-11-21T05:38:27;19.33;;;10.33;;
948;SDS011;461;51.436;7.312;2023-11-21T05:40:53;25.80;;;11.13;;
948;SDS011;461;51.436;7.312;2023-11-21T05:43:19;18.57;;;10.40;;
948;SDS011;461;51.436;7.312;2023-11-21T05:45:45;17.43;;;9.20;;
948;SDS011;461;51.436;7.312;2023-11-21T05:48:11;17.10;;;11.03;;
948;SDS011;461;51.436;7.312;2023-11-21T05:50:37;19.80;;;10.60;;
948;SDS011;461;51.436;7.312;2023-11-21T05:53:03;19.17;;;11.67;;
948;SDS011;461;51.436;7.312;2023-11-21T05:55:29;19.77;;;10.43;;
948;SDS011;461;51.436;7.312;2023-11-21T05:57:56;19.53;;;11.10;;
948;SDS011;461;51.436;7.312;2023-11-21T06:00:22;22.07;;;10.83;;
948;SDS011;461;51.436;7.312;2023-11-21T06:02:48;18.47;;;10.23;;
948;SDS011;461;51.436;7.312;2023-11-21T06:05:21;19.83;;;9.73;;
948;SDS011;461;51.436;7.312;2023-11-21T06:07:48;17.27;;;10.23;;
948;SDS011;461;51.436;7.312;2023-11-21T06:10:15;19.60;;;9.93;;
948;SDS011;461;51.436;7.312;2023-11-21T06:12:42;18.53;;;10.27;;
948;SDS011;461;51.436;7.312;2023-11-21T06:15:09;20.63;;;9.50;;
948;SDS011;461;51.436;7.312;2023-11-21T06:17:38;14.73;;;8.83;;
948;SDS011;461;51.436;7.312;2023-11-21T06:20:05;16.00;;;8.37;;
948;SDS011;461;51.436;7.312;2023-11-21T06:22:39;15.53;;;9.67;;
948;SDS011;461;51.436;7.312;2023-11-21T06:25:13;16.80;;;9.80;;
948;SDS011;461;51.436;7.312;2023-11-21T06:27:52;19.73;;;9.40;;
948;SDS011;461;51.436;7.312;2023-11-21T06:30:30;20.40;;;10.07;;
948;SDS011;461;51.436;7.312;2023-11-21T06:33:39;15.93;;;8.33;;
948;SDS011;461;51.436;7.312;2023-11-21T06:36:31;29.97;;;9.50;;
948;SDS011;461;51.436;7.312;2023-11-21T06:39:05;17.67;;;10.17;;
948;SDS011;461;51.436;7.312;2023-11-21T06:41:33;18.90;;;9.70;;
948;SDS011;461;51.436;7.312;2023-11-21T06:44:04;12.73;;;9.60;;
948;SDS011;461;51.436;7.312;2023-11-21T06:46:34;26.57;;;10.40;;
948;SDS011;461;51.436;7.312;2023-11-21T06:59:36;18.10;;;10.33;;
948;SDS011;461;51.436;7.312;2023-11-21T07:02:17;15.03;;;9.33;;
948;SDS011;461;51.436;7.312;2023-11-21T07:04:58;21.30;;;9.10;;
948;SDS011;461;51.436;7.312;2023-11-21T07:07:29;16.23;;;8.40;;
948;SDS011;461;51.436;7.312;2023-11-21T07:12:40;29.80;;;9.80;;
948;SDS011;461;51.436;7.312;2023-11-21T07:15:11;18.20;;;11.00;;
948;SDS011;461;51.436;7.312;2023-11-21T07:17:37;18.00;;;9.53;;
948;SDS011;461;51.436;7.312;2023-11-21T07:20:15;19.00;;;10.80;;
948;SDS011;461;51.436;7.312;2023-11-21T07:22:56;16.27;;;10.10;;
948;SDS011;461;51.436;7.312;2023-11-21T07:25:36;17.77;;;8.90;;
948;SDS011;461;51.436;7.312;2023-11-21T07:28:13;24.63;;;11.47;;
948;SDS011;461;51.436;7.312;2023-11-21T07:30:55;21.53;;;11.70;;
948;SDS011;461;51.436;7.312;2023-11-21T07:33:31;15.20;;;8.87;;
948;SDS011;461;51.436;7.312;2023-11-21T07:36:01;20.13;;;9.73;;
948;SDS011;461;51.436;7.312;2023-11-21T07:38:29;18.60;;;10.90;;
948;SDS011;461;51.436;7.312;2023-11-21T07:41:05;22.53;;;11.10;;
948;SDS011;461;51.436;7.312;2023-11-21T07:43:40;15.40;;;9.70;;
948;SDS011;461;51.436;7.312;2023-11-21T07:46:11;22.83;;;10.20;;
948;SDS011;461;51.436;7.312;2023-11-21T07:48:38;14.33;;;9.67;;
948;SDS011;461;51.436;7.312;2023-11-21T07:51:11;17.50;;;10.00;;
948;SDS011;461;51.436;7.312;2023-11-21T07:54:04;24.93;;;9.40;;
948;SDS011;461;51.436;7.312;2023-11-21T07:56:33;21.47;;;9.63;;
948;SDS011;461;51.436;7.312;2023-11-21T07:59:01;33.80;;;9.60;;
948;SDS011;461;51.436;7.312;2023-11-21T08:01:27;15.20;;;9.43;;
948;SDS011;461;51.436;7.312;2023-11-21T08:03:54;23.97;;;10.27;;
948;SDS011;461;51.436;7.312;2023-11-21T08:06:22;19.30;;;10.27;;
948;SDS011;461;51.436;7.312;2023-11-21T08:08:49;15.17;;;10.40;;
948;SDS011;461;51.436;7.312;2023-11-21T08:11:15;20.57;;;12.03;;
948;SDS011;461;51.436;7.312;2023-11-21T08:13:41;21.90;;;10.90;;
948;SDS011;461;51.436;7.312;2023-11-21T08:16:11;20.33;;;12.70;;
948;SDS011;461;51.436;7.312;2023-11-21T08:18:45;19.27;;;10.20;;
948;SDS011;461;51.436;7.312;2023-11-21T08:21:14;25.93;;;11.80;;
948;SDS011;461;51.436;7.312;2023-11-21T08:23:49;17.70;;;10.17;;
948;SDS011;461;51.436;7.312;2023-11-21T08:26:32;20.00;;;11.10;;
948;SDS011;461;51.436;7.312;2023-11-21T08:29:03;23.43;;;12.43;;
948;SDS011;461;51.436;7.312;2023-11-21T08:31:32;20.00;;;11.70;;
948;SDS011;461;51.436;7.312;2023-11-21T08:33:58;21.47;;;10.40;;
948;SDS011;461;51.436;7.312;2023-11-21T08:36:25;21.60;;;10.97;;
948;SDS011;461;51.436;7.312;2023-11-21T08:38:51;20.50;;;9.90;;
948;SDS011;461;51.436;7.312;2023-11-21T08:41:20;28.80;;;11.27;;
948;SDS011;461;51.436;7.312;2023-11-21T08:43:52;27.50;;;12.20;;
948;SDS011;461;51.436;7.312;2023-11-21T08:46:20;23.70;;;11.70;;
948;SDS011;461;51.436;7.312;2023-11-21T08:48:47;21.17;;;12.00;;
948;SDS011;461;51.436;7.312;2023-11-21T08:51:12;26.10;;;11.93;;
948;SDS011;461;51.436;7.312;2023-11-21T08:53:39;26.83;;;12.60;;
948;SDS011;461;51.436;7.312;2023-11-21T08:56:05;23.67;;;12.20;;
948;SDS011;461;51.436;7.312;2023-11-21T08:58:31;20.00;;;11.30;;
948;SDS011;461;51.436;7.312;2023-11-21T09:01:01;27.53;;;11.80;;
948;SDS011;461;51.436;7.312;2023-11-21T09:03:28;24.37;;;11.87;;
948;SDS011;461;51.436;7.312;2023-11-21T09:05:53;29.10;;;11.73;;
948;SDS011;461;51.436;7.312;2023-11-21T09:08:19;22.87;;;14.03;;
948;SDS011;461;51.436;7.312;2023-11-21T09:10:47;23.63;;;13.63;;
948;SDS011;461;51.436;7.312;2023-11-21T09:13:13;21.87;;;11.67;;
948;SDS011;461;51.436;7.312;2023-11-21T09:15:38;21.90;;;11.80;;
948;SDS011;461;51.436;7.312;2023-11-21T09:18:09;21.07;;;12.20;;
948;SDS011;461;51.436;7.312;2023-11-21T09:20:35;18.57;;;10.80;;
948;SDS011;461;51.436;7.312;2023-11-21T09:23:02;26.97;;;12.90;;
948;SDS011;461;51.436;7.312;2023-11-21T09:25:32;25.27;;;12.27;;
948;SDS011;461;51.436;7.312;2023-11-21T09:27:58;24.63;;;13.80;;
948;SDS011;461;51.436;7.312;2023-11-21T09:30:27;27.23;;;12.73;;
948;SDS011;461;51.436;7.312;2023-11-21T09:32:56;20.97;;;12.33;;
948;SDS011;461;51.436;7.312;2023-11-21T09:35:23;20.77;;;13.20;;
948;SDS011;461;51.436;7.312;2023-11-21T09:37:49;20.90;;;12.97;;
948;SDS011;461;51.436;7.312;2023-11-21T09:40:18;27.33;;;13.77;;
948;SDS011;461;51.436;7.312;2023-11-21T09:42:56;32.00;;;15.33;;
948;SDS011;461;51.436;7.312;2023-11-21T09:45:39;31.03;;;15.37;;
948;SDS011;461;51.436;7.312;2023-11-21T09:48:22;33.07;;;16.17;;
948;SDS011;461;51.436;7.312;2023-11-21T09:51:09;40.73;;;18.37;;
948;SDS011;461;51.436;7.312;2023-11-21T09:53:42;41.30;;;18.77;;
948;SDS011;461;51.436;7.312;2023-11-21T10:00:04;48.70;;;19.50;;
948;SDS011;461;51.436;7.312;2023-11-21T10:02:36;41.33;;;19.07;;
948;SDS011;461;51.436;7.312;2023-11-21T10:05:16;40.60;;;18.40;;
948;SDS011;461;51.436;7.312;2023-11-21T10:07:43;35.20;;;17.87;;
948;SDS011;461;51.436;7.312;2023-11-21T10:13:09;42.00;;;19.03;;
948;SDS011;461;51.436;7.312;2023-11-21T10:15:43;42.63;;;20.83;;
948;SDS011;461;51.436;7.312;2023-11-21T10:21:22;45.33;;;18.43;;
948;SDS011;461;51.436;7.312;2023-11-21T10:23:48;42.67;;;19.60;;
948;SDS011;461;51.436;7.312;2023-11-21T10:26:18;47.40;;;19.67;;
948;SDS011;461;51.436;7.312;2023-11-21T10:28:55;35.20;;;19.03;;
948;SDS011;461;51.436;7.312;2023-11-21T10:48:07;43.67;;;18.60;;
948;SDS011;461;51.436;7.312;2023-11-21T10:50:34;49.63;;;22.30;;
948;SDS011;461;51.436;7.312;2023-11-21T10:55:39;52.57;;;22.10;;
948;SDS011;461;51.436;7.312;2023-11-21T10:58:06;49.47;;;20.70;;
948;SDS011;461;51.436;7.312;2023-11-21T11:06:59;37.27;;;19.73;;
948;SDS011;461;51.436;7.312;2023-11-21T11:09:33;52.20;;;22.80;;
948;SDS011;461;51.436;7.312;2023-11-21T11:12:08;50.40;;;22.90;;
948;SDS011;461;51.436;7.312;2023-11-21T11:14:40;58.33;;;22.40;;
948;SDS011;461;51.436;7.312;2023-11-21T11:17:10;46.70;;;21.87;;
948;SDS011;461;51.436;7.312;2023-11-21T11:27:30;41.93;;;23.50;;
948;SDS011;461;51.436;7.312;2023-11-21T11:35:04;50.00;;;21.53;;
948;SDS011;461;51.436;7.312;2023-11-21T11:37:55;50.37;;;22.70;;
948;SDS011;461;51.436;7.312;2023-11-21T11:40:21;50.83;;;22.70;;
948;SDS011;461;51.436;7.312;2023-11-21T11:42:58;48.10;;;24.43;;
948;SDS011;461;51.436;7.312;2023-11-21T11:45:24;50.73;;;21.30;;
948;SDS011;461;51.436;7.312;2023-11-21T11:48:00;44.30;;;20.40;;
948;SDS011;461;51.436;7.312;2023-11-21T11:50:26;53.73;;;21.70;;
948;SDS011;461;51.436;7.312;2023-11-21T11:52:53;49.03;;;22.50;;
948;SDS011;461;51.436;7.312;2023-11-21T11:55:20;45.40;;;21.67;;
948;SDS011;461;51.436;7.312;2023-11-21T11:57:49;39.43;;;21.47;;
948;SDS011;461;51.436;7.312;2023-11-21T12:00:19;46.10;;;20.97;;
948;SDS011;461;51.436;7.312;2023-11-21T12:02:50;59.03;;;22.90;;
948;SDS011;461;51.436;7.312;2023-11-21T12:05:20;54.37;;;22.77;;
948;SDS011;461;51.436;7.312;2023-11-21T12:14:19;42.30;;;20.03;;
948;SDS011;461;51.436;7.312;2023-11-21T12:16:51;37.17;;;18.67;;
948;SDS011;461;51.436;7.312;2023-11-21T12:19:23;36.07;;;16.37;;
948;SDS011;461;51.436;7.312;2023-11-21T12:22:12;30.63;;;16.20;;
948;SDS011;461;51.436;7.312;2023-11-21T12:28:02;29.80;;;15.60;;
948;SDS011;461;51.436;7.312;2023-11-21T12:31:07;33.27;;;16.10;;
948;SDS011;461;51.436;7.312;2023-11-21T12:47:59;31.90;;;16.07;;
948;SDS011;461;51.436;7.312;2023-11-21T12:53:48;25.57;;;14.97;;
948;SDS011;461;51.436;7.312;2023-11-21T13:07:40;17.83;;;11.70;;
948;SDS011;461;51.436;7.312;2023-11-21T13:25:01;15.10;;;10.23;;
948;SDS011;461;51.436;7.312;2023-11-21T13:31:23;21.27;;;11.43;;
948;SDS011;461;51.436;7.312;2023-11-21T13:34:00;17.43;;;12.17;;
948;SDS011;461;51.436;7.312;2023-11-21T13:36:39;19.77;;;11.37;;
948;SDS011;461;51.436;7.312;2023-11-21T13:39:25;18.43;;;11.10;;
948;SDS011;461;51.436;7.312;2023-11-21T13:41:54;25.90;;;13.37;;
948;SDS011;461;51.436;7.312;2023-11-21T13:44:22;25.17;;;13.90;;
948;SDS011;461;51.436;7.312;2023-11-21T13:47:00;21.50;;;12.37;;
948;SDS011;461;51.436;7.312;2023-11-21T13:49:26;20.03;;;11.70;;
948;SDS011;461;51.436;7.312;2023-11-21T13:51:52;17.30;;;11.90;;
948;SDS011;461;51.436;7.312;2023-11-21T13:54:20;21.50;;;12.87;;
948;SDS011;461;51.436;7.312;2023-11-21T13:56:49;20.00;;;12.20;;
948;SDS011;461;51.436;7.312;2023-11-21T16:37:34;14.07;;;9.07;;
948;SDS011;461;51.436;7.312;2023-11-21T16:40:17;13.43;;;9.20;;
948;SDS011;461;51.436;7.312;2023-11-21T16:42:59;13.43;;;9.53;;
948;SDS011;461;51.436;7.312;2023-11-21T16:45:53;13.80;;;9.70;;
948;SDS011;461;51.436;7.312;2023-11-21T16:49:19;12.10;;;8.10;;
948;SDS011;461;51.436;7.312;2023-11-21T16:51:45;13.10;;;8.03;;
948;SDS011;461;51.436;7.312;2023-11-21T16:54:17;11.93;;;9.10;;
948;SDS011;461;51.436;7.312;2023-11-21T16:56:46;11.73;;;8.87;;
948;SDS011;461;51.436;7.312;2023-11-21T17:03:00;18.80;;;9.07;;
948;SDS011;461;51.436;7.312;2023-11-21T17:05:20;12.10;;;8.60;;
948;SDS011;461;51.436;7.312;2023-11-21T17:07:46;11.17;;;7.97;;
948;SDS011;461;51.436;7.312;2023-11-21T17:10:15;14.00;;;8.33;;
948;SDS011;461;51.436;7.312;2023-11-21T17:12:53;11.70;;;9.30;;
948;SDS011;461;51.436;7.312;2023-11-21T17:15:23;14.37;;;9.97;;
948;SDS011;461;51.436;7.312;2023-11-21T17:17:49;12.43;;;9.23;;
948;SDS011;461;51.436;7.312;2023-11-21T17:20:27;16.83;;;10.87;;
948;SDS011;461;51.436;7.312;2023-11-21T17:26:00;16.10;;;11.00;;
948;SDS011;461;51.436;7.312;2023-11-21T17:28:45;17.13;;;10.17;;
948;SDS011;461;51.436;7.312;2023-11-21T17:31:32;12.97;;;9.63;;
948;SDS011;461;51.436;7.312;2023-11-21T17:34:43;14.17;;;9.80;;
948;SDS011;461;51.436;7.312;2023-11-21T17:37:31;14.07;;;9.97;;
948;SDS011;461;51.436;7.312;2023-11-21T17:40:13;15.47;;;11.07;;
948;SDS011;461;51.436;7.312;2023-11-21T17:43:35;12.77;;;9.30;;
948;SDS011;461;51.436;7.312;2023-11-21T17:47:12;11.30;;;9.27;;
948;SDS011;461;51.436;7.312;2023-11-21T17:50:26;13.73;;;9.10;;
948;SDS011;461;51.436;7.312;2023-11-21T17:56:49;12.70;;;8.60;;
948;SDS011;461;51.436;7.312;2023-11-21T17:59:42;14.23;;;9.10;;
948;SDS011;461;51.436;7.312;2023-11-21T18:02:18;13.00;;;8.63;;
948;SDS011;461;51.436;7.312;2023-11-21T18:08:10;14.00;;;8.60;;
948;SDS011;461;51.436;7.312;2023-11-21T18:10:40;9.83;;;7.63;;
948;SDS011;461;51.436;7.312;2023-11-21T18:13:09;14.53;;;7.93;;
948;SDS011;461;51.436;7.312;2023-11-21T18:15:46;12.73;;;8.30;;
948;SDS011;461;51.436;7.312;2023-11-21T18:18:30;10.47;;;7.73;;
948;SDS011;461;51.436;7.312;2023-11-21T19:05:43;9.13;;;7.73;;
948;SDS011;461;51.436;7.312;2023-11-21T19:08:23;10.40;;;7.53;;
948;SDS011;461;51.436;7.312;2023-11-21T19:10:59;16.57;;;9.20;;
948;SDS011;461;51.436;7.312;2023-11-21T19:13:28;14.10;;;8.40;;
948;SDS011;461;51.436;7.312;2023-11-21T19:15:54;14.37;;;8.47;;
948;SDS011;461;51.436;7.312;2023-11-21T19:18:22;17.40;;;9.43;;
948;SDS011;461;51.436;7.312;2023-11-21T19:20:53;14.47;;;9.47;;
948;SDS011;461;51.436;7.312;2023-11-21T19:23:22;14.33;;;8.10;;
948;SDS011;461;51.436;7.312;2023-11-21T19:25:51;10.33;;;7.93;;
948;SDS011;461;51.436;7.312;2023-11-21T19:28:19;11.47;;;7.60;;
948;SDS011;461;51.436;7.312;2023-11-21T19:30:46;13.20;;;8.47;;
948;SDS011;461;51.436;7.312;2023-11-21T19:33:30;11.37;;;7.77;;
948;SDS011;461;51.436;7.312;2023-11-21T19:42:47;11.77;;;8.40;;
948;SDS011;461;51.436;7.312;2023-11-21T19:45:13;13.33;;;10.10;;
948;SDS011;461;51.436;7.312;2023-11-21T21:09:34;11.20;;;7.70;;
948;SDS011;461;51.436;7.312;2023-11-21T22:45:36;9.70;;;6.60;;
948;SDS011;461;51.436;7.312;2023-11-21T22:51:16;6.97;;;5.50;;
948;SDS011;461;51.436;7.312;2023-11-21T22:53:58;9.93;;;7.00;;
948;SDS011;461;51.436;7.312;2023-11-21T22:56:26;8.30;;;6.10;;
948;SDS011;461;51.436;7.312;2023-11-21T23:14:46;8.17;;;7.17;;
948;SDS011;461;51.436;7.312;2023-11-21T23:17:46;7.47;;;6.30;;
948;SDS011;461;51.436;7.312;2023-11-21T23:20:18;12.73;;;7.53;;
948;SDS011;461;51.436;7.312;2023-11-21T23:22:46;9.10;;;6.57;;
948;SDS011;461;51.436;7.312;2023-11-21T23:25:13;9.97;;;6.23;;
948;SDS011;461;51.436;7.312;2023-11-21T23:27:44;7.37;;;6.23;;
948;SDS011;461;51.436;7.312;2023-11-21T23:30:16;8.73;;;6.50;;
948;SDS011;461;51.436;7.312;2023-11-21T23:32:45;8.53;;;7.00;;
948;SDS011;461;51.436;7.312;2023-11-21T23:55:14;8.33;;;6.10;;
948;SDS011;461;51.436;7.312;2023-11-21T23:57:49;9.80;;;6.90;;
